sensor_id;sensor_type;location;lat;lon;timestamp;temperature;humidity
74368;DHT22;64991;41.090;-8.118;2023-06-22T00:04:19;24.10;82.00
74368;DHT22;64991;41.090;-8.118;2023-06-22T00:09:22;24.20;82.00
74368;DHT22;64991;41.090;-8.118;2023-06-22T00:14:27;24.10;81.70
74368;DHT22;64991;41.090;-8.118;2023-06-22T00:19:31;24.20;81.60
74368;DHT22;64991;41.090;-8.118;2023-06-22T00:24:37;24.20;81.70
74368;DHT22;64991;41.090;-8.118;2023-06-22T00:29:42;24.20;81.80
74368;DHT22;64991;41.090;-8.118;2023-06-22T00:34:45;24.20;81.60
74368;DHT22;64991;41.090;-8.118;2023-06-22T00:39:49;24.10;81.50
74368;DHT22;64991;41.090;-8.118;2023-06-22T00:44:54;24.10;81.80
74368;DHT22;64991;41.090;-8.118;2023-06-22T00:49:58;24.20;81.50
74368;DHT22;64991;41.090;-8.118;2023-06-22T00:55:02;24.20;81.50
74368;DHT22;64991;41.090;-8.118;2023-06-22T01:00:08;24.20;81.60
74368;DHT22;64991;41.090;-8.118;2023-06-22T01:05:13;24.10;81.40
74368;DHT22;64991;41.090;-8.118;2023-06-22T01:10:19;24.10;81.50
74368;DHT22;64991;41.090;-8.118;2023-06-22T01:15:30;24.10;81.50
74368;DHT22;64991;41.090;-8.118;2023-06-22T01:20:36;24.20;81.40
74368;DHT22;64991;41.090;-8.118;2023-06-22T01:25:43;24.10;81.50
74368;DHT22;64991;41.090;-8.118;2023-06-22T01:30:51;24.10;81.50
74368;DHT22;64991;41.090;-8.118;2023-06-22T01:36:05;24.10;81.30
74368;DHT22;64991;41.090;-8.118;2023-06-22T01:41:10;24.10;81.60
74368;DHT22;64991;41.090;-8.118;2023-06-22T01:46:15;24.10;81.50
74368;DHT22;64991;41.090;-8.118;2023-06-22T01:51:21;24.10;81.40
74368;DHT22;64991;41.090;-8.118;2023-06-22T01:56:24;24.10;81.10
74368;DHT22;64991;41.090;-8.118;2023-06-22T02:01:31;24.10;81.50
74368;DHT22;64991;41.090;-8.118;2023-06-22T02:06:39;24.10;81.40
74368;DHT22;64991;41.090;-8.118;2023-06-22T02:11:45;24.10;81.30
74368;DHT22;64991;41.090;-8.118;2023-06-22T02:16:52;24.10;81.40
74368;DHT22;64991;41.090;-8.118;2023-06-22T02:21:55;24.20;81.40
74368;DHT22;64991;41.090;-8.118;2023-06-22T02:26:59;24.20;81.40
74368;DHT22;64991;41.090;-8.118;2023-06-22T02:32:06;24.00;81.40
74368;DHT22;64991;41.090;-8.118;2023-06-22T02:37:10;24.00;81.20
74368;DHT22;64991;41.090;-8.118;2023-06-22T02:42:14;24.10;81.20
74368;DHT22;64991;41.090;-8.118;2023-06-22T02:47:24;24.10;81.30
74368;DHT22;64991;41.090;-8.118;2023-06-22T02:52:27;24.10;81.50
74368;DHT22;64991;41.090;-8.118;2023-06-22T02:57:31;24.10;81.10
74368;DHT22;64991;41.090;-8.118;2023-06-22T03:02:36;24.10;81.20
74368;DHT22;64991;41.090;-8.118;2023-06-22T03:07:40;24.00;81.30
74368;DHT22;64991;41.090;-8.118;2023-06-22T03:12:44;24.00;81.20
74368;DHT22;64991;41.090;-8.118;2023-06-22T03:17:49;24.00;81.20
74368;DHT22;64991;41.090;-8.118;2023-06-22T03:22:52;24.00;81.10
74368;DHT22;64991;41.090;-8.118;2023-06-22T03:27:56;24.00;81.30
74368;DHT22;64991;41.090;-8.118;2023-06-22T03:33:01;24.00;81.50
74368;DHT22;64991;41.090;-8.118;2023-06-22T03:38:04;24.00;80.90
74368;DHT22;64991;41.090;-8.118;2023-06-22T03:43:08;24.00;81.10
74368;DHT22;64991;41.090;-8.118;2023-06-22T03:48:13;24.00;81.00
74368;DHT22;64991;41.090;-8.118;2023-06-22T03:53:17;24.00;81.50
74368;DHT22;64991;41.090;-8.118;2023-06-22T03:58:20;24.00;81.10
74368;DHT22;64991;41.090;-8.118;2023-06-22T04:03:26;24.00;81.10
74368;DHT22;64991;41.090;-8.118;2023-06-22T04:08:29;23.90;81.00
74368;DHT22;64991;41.090;-8.118;2023-06-22T04:13:33;24.10;81.20
74368;DHT22;64991;41.090;-8.118;2023-06-22T04:18:38;24.00;81.10
74368;DHT22;64991;41.090;-8.118;2023-06-22T04:23:41;23.90;81.10
74368;DHT22;64991;41.090;-8.118;2023-06-22T04:28:46;23.90;81.00
74368;DHT22;64991;41.090;-8.118;2023-06-22T04:33:55;24.00;81.00
74368;DHT22;64991;41.090;-8.118;2023-06-22T04:38:58;24.00;81.30
74368;DHT22;64991;41.090;-8.118;2023-06-22T04:44:02;23.90;81.10
74368;DHT22;64991;41.090;-8.118;2023-06-22T04:49:08;24.00;81.00
74368;DHT22;64991;41.090;-8.118;2023-06-22T04:54:15;24.00;81.00
74368;DHT22;64991;41.090;-8.118;2023-06-22T04:59:19;24.00;81.10
74368;DHT22;64991;41.090;-8.118;2023-06-22T05:04:24;23.90;81.20
74368;DHT22;64991;41.090;-8.118;2023-06-22T05:09:30;23.90;81.00
74368;DHT22;64991;41.090;-8.118;2023-06-22T05:14:35;23.90;81.10
74368;DHT22;64991;41.090;-8.118;2023-06-22T05:19:40;23.90;81.10
74368;DHT22;64991;41.090;-8.118;2023-06-22T05:24:47;23.90;80.90
74368;DHT22;64991;41.090;-8.118;2023-06-22T05:29:50;23.90;80.90
74368;DHT22;64991;41.090;-8.118;2023-06-22T05:34:55;23.90;80.90
74368;DHT22;64991;41.090;-8.118;2023-06-22T05:40:17;23.90;81.10
74368;DHT22;64991;41.090;-8.118;2023-06-22T05:45:20;23.90;80.90
74368;DHT22;64991;41.090;-8.118;2023-06-22T05:50:26;23.90;81.00
74368;DHT22;64991;41.090;-8.118;2023-06-22T05:55:30;23.90;80.90
74368;DHT22;64991;41.090;-8.118;2023-06-22T06:00:36;23.80;80.90
74368;DHT22;64991;41.090;-8.118;2023-06-22T06:05:42;23.90;80.90
74368;DHT22;64991;41.090;-8.118;2023-06-22T06:10:45;23.90;80.90
74368;DHT22;64991;41.090;-8.118;2023-06-22T06:15:49;23.90;81.00
74368;DHT22;64991;41.090;-8.118;2023-06-22T06:20:58;23.90;80.90
74368;DHT22;64991;41.090;-8.118;2023-06-22T06:26:02;23.80;80.80
74368;DHT22;64991;41.090;-8.118;2023-06-22T06:31:09;23.90;80.90
74368;DHT22;64991;41.090;-8.118;2023-06-22T06:36:15;23.90;81.00
74368;DHT22;64991;41.090;-8.118;2023-06-22T06:41:19;23.90;80.90
74368;DHT22;64991;41.090;-8.118;2023-06-22T06:46:23;23.90;81.00
74368;DHT22;64991;41.090;-8.118;2023-06-22T06:51:28;23.90;80.70
74368;DHT22;64991;41.090;-8.118;2023-06-22T06:56:32;23.80;80.90
74368;DHT22;64991;41.090;-8.118;2023-06-22T07:01:36;23.90;80.90
74368;DHT22;64991;41.090;-8.118;2023-06-22T07:06:41;23.90;81.10
74368;DHT22;64991;41.090;-8.118;2023-06-22T07:11:45;23.90;81.00
74368;DHT22;64991;41.090;-8.118;2023-06-22T07:16:48;23.90;81.20
74368;DHT22;64991;41.090;-8.118;2023-06-22T07:21:54;23.90;80.90
74368;DHT22;64991;41.090;-8.118;2023-06-22T07:26:57;23.80;81.50
74368;DHT22;64991;41.090;-8.118;2023-06-22T07:32:01;23.90;80.90
74368;DHT22;64991;41.090;-8.118;2023-06-22T07:37:08;23.90;81.00
74368;DHT22;64991;41.090;-8.118;2023-06-22T07:42:30;23.90;81.00
74368;DHT22;64991;41.090;-8.118;2023-06-22T07:47:35;23.90;80.90
74368;DHT22;64991;41.090;-8.118;2023-06-22T07:52:40;23.90;80.80
74368;DHT22;64991;41.090;-8.118;2023-06-22T07:57:44;23.90;80.80
74368;DHT22;64991;41.090;-8.118;2023-06-22T08:02:49;23.90;80.70
74368;DHT22;64991;41.090;-8.118;2023-06-22T08:07:55;24.00;80.70
74368;DHT22;64991;41.090;-8.118;2023-06-22T08:12:58;23.90;80.70
74368;DHT22;64991;41.090;-8.118;2023-06-22T08:18:02;23.90;80.80
74368;DHT22;64991;41.090;-8.118;2023-06-22T08:23:07;23.90;80.60
74368;DHT22;64991;41.090;-8.118;2023-06-22T08:28:11;23.90;80.80
74368;DHT22;64991;41.090;-8.118;2023-06-22T08:33:14;23.90;80.90
74368;DHT22;64991;41.090;-8.118;2023-06-22T08:38:30;24.00;81.00
74368;DHT22;64991;41.090;-8.118;2023-06-22T08:43:33;23.90;81.10
74368;DHT22;64991;41.090;-8.118;2023-06-22T08:48:36;23.90;81.00
74368;DHT22;64991;41.090;-8.118;2023-06-22T08:53:41;24.00;81.30
74368;DHT22;64991;41.090;-8.118;2023-06-22T08:58:46;24.00;81.10
74368;DHT22;64991;41.090;-8.118;2023-06-22T09:03:50;24.00;81.20
74368;DHT22;64991;41.090;-8.118;2023-06-22T09:09:01;23.90;81.20
74368;DHT22;64991;41.090;-8.118;2023-06-22T09:14:04;23.90;81.50
74368;DHT22;64991;41.090;-8.118;2023-06-22T09:19:08;23.90;81.40
74368;DHT22;64991;41.090;-8.118;2023-06-22T09:24:13;24.00;81.60
74368;DHT22;64991;41.090;-8.118;2023-06-22T09:29:16;24.00;81.70
74368;DHT22;64991;41.090;-8.118;2023-06-22T09:34:20;23.90;81.50
74368;DHT22;64991;41.090;-8.118;2023-06-22T09:39:24;23.90;81.90
74368;DHT22;64991;41.090;-8.118;2023-06-22T09:44:28;23.90;81.80
74368;DHT22;64991;41.090;-8.118;2023-06-22T09:49:31;23.90;81.40
74368;DHT22;64991;41.090;-8.118;2023-06-22T09:54:50;23.90;81.80
74368;DHT22;64991;41.090;-8.118;2023-06-22T09:59:53;23.90;82.60
74368;DHT22;64991;41.090;-8.118;2023-06-22T10:04:57;23.90;82.10
74368;DHT22;64991;41.090;-8.118;2023-06-22T10:10:03;23.90;82.40
74368;DHT22;64991;41.090;-8.118;2023-06-22T10:15:07;23.90;81.90
74368;DHT22;64991;41.090;-8.118;2023-06-22T10:20:11;23.90;81.90
74368;DHT22;64991;41.090;-8.118;2023-06-22T10:25:17;23.90;81.80
74368;DHT22;64991;41.090;-8.118;2023-06-22T10:30:20;23.90;82.00
74368;DHT22;64991;41.090;-8.118;2023-06-22T10:35:24;23.90;81.90
74368;DHT22;64991;41.090;-8.118;2023-06-22T10:40:29;24.00;81.90
74368;DHT22;64991;41.090;-8.118;2023-06-22T10:45:33;23.90;82.00
74368;DHT22;64991;41.090;-8.118;2023-06-22T10:50:36;24.00;81.70
74368;DHT22;64991;41.090;-8.118;2023-06-22T10:55:41;23.90;82.00
74368;DHT22;64991;41.090;-8.118;2023-06-22T11:00:57;24.00;82.10
74368;DHT22;64991;41.090;-8.118;2023-06-22T11:06:02;24.00;82.00
74368;DHT22;64991;41.090;-8.118;2023-06-22T11:11:07;24.00;82.00
74368;DHT22;64991;41.090;-8.118;2023-06-22T11:16:11;23.90;81.90
74368;DHT22;64991;41.090;-8.118;2023-06-22T11:21:14;23.90;82.20
74368;DHT22;64991;41.090;-8.118;2023-06-22T11:26:19;23.90;82.30
74368;DHT22;64991;41.090;-8.118;2023-06-22T11:31:23;24.00;82.20
74368;DHT22;64991;41.090;-8.118;2023-06-22T11:36:28;24.00;82.00
74368;DHT22;64991;41.090;-8.118;2023-06-22T11:41:36;24.00;81.70
74368;DHT22;64991;41.090;-8.118;2023-06-22T11:46:39;24.00;82.10
74368;DHT22;64991;41.090;-8.118;2023-06-22T11:51:43;24.00;82.20
74368;DHT22;64991;41.090;-8.118;2023-06-22T11:56:48;24.00;81.70
74368;DHT22;64991;41.090;-8.118;2023-06-22T12:01:51;24.00;81.60
74368;DHT22;64991;41.090;-8.118;2023-06-22T12:07:12;23.90;81.70
74368;DHT22;64991;41.090;-8.118;2023-06-22T12:12:17;24.00;81.50
74368;DHT22;64991;41.090;-8.118;2023-06-22T12:17:20;24.00;81.60
74368;DHT22;64991;41.090;-8.118;2023-06-22T12:22:24;24.00;81.80
74368;DHT22;64991;41.090;-8.118;2023-06-22T12:27:29;24.10;82.10
74368;DHT22;64991;41.090;-8.118;2023-06-22T12:32:32;24.00;81.80
74368;DHT22;64991;41.090;-8.118;2023-06-22T12:37:36;24.00;81.60
74368;DHT22;64991;41.090;-8.118;2023-06-22T12:42:41;24.00;81.60
74368;DHT22;64991;41.090;-8.118;2023-06-22T12:47:44;24.00;82.10
74368;DHT22;64991;41.090;-8.118;2023-06-22T12:52:48;23.90;81.90
74368;DHT22;64991;41.090;-8.118;2023-06-22T12:57:53;24.00;82.10
74368;DHT22;64991;41.090;-8.118;2023-06-22T13:02:56;24.00;82.10
74368;DHT22;64991;41.090;-8.118;2023-06-22T13:08:00;23.90;82.10
74368;DHT22;64991;41.090;-8.118;2023-06-22T13:13:06;24.00;82.10
74368;DHT22;64991;41.090;-8.118;2023-06-22T13:18:09;24.00;81.80
74368;DHT22;64991;41.090;-8.118;2023-06-22T13:23:13;24.00;81.80
74368;DHT22;64991;41.090;-8.118;2023-06-22T13:28:18;24.00;82.10
74368;DHT22;64991;41.090;-8.118;2023-06-22T13:33:29;24.00;82.00
74368;DHT22;64991;41.090;-8.118;2023-06-22T13:38:32;24.00;82.00
74368;DHT22;64991;41.090;-8.118;2023-06-22T13:43:41;24.00;82.30
74368;DHT22;64991;41.090;-8.118;2023-06-22T13:49:02;24.00;82.10
74368;DHT22;64991;41.090;-8.118;2023-06-22T13:54:22;24.00;82.30
74368;DHT22;64991;41.090;-8.118;2023-06-22T13:59:32;24.00;82.30
74368;DHT22;64991;41.090;-8.118;2023-06-22T14:04:36;24.00;82.10
74368;DHT22;64991;41.090;-8.118;2023-06-22T14:09:39;24.00;82.20
74368;DHT22;64991;41.090;-8.118;2023-06-22T14:14:44;24.00;82.60
74368;DHT22;64991;41.090;-8.118;2023-06-22T14:19:48;23.90;82.50
74368;DHT22;64991;41.090;-8.118;2023-06-22T14:24:52;24.00;82.70
74368;DHT22;64991;41.090;-8.118;2023-06-22T14:30:16;24.00;82.60
74368;DHT22;64991;41.090;-8.118;2023-06-22T14:35:20;24.10;82.40
74368;DHT22;64991;41.090;-8.118;2023-06-22T14:40:23;24.00;82.60
74368;DHT22;64991;41.090;-8.118;2023-06-22T14:45:29;24.00;82.70
74368;DHT22;64991;41.090;-8.118;2023-06-22T14:50:32;24.00;82.50
74368;DHT22;64991;41.090;-8.118;2023-06-22T14:55:36;24.00;82.50
74368;DHT22;64991;41.090;-8.118;2023-06-22T15:00:40;24.00;83.00
74368;DHT22;64991;41.090;-8.118;2023-06-22T15:05:45;24.00;82.60
74368;DHT22;64991;41.090;-8.118;2023-06-22T15:10:48;24.10;82.80
74368;DHT22;64991;41.090;-8.118;2023-06-22T15:15:54;24.10;83.10
74368;DHT22;64991;41.090;-8.118;2023-06-22T15:20:57;24.00;82.50
74368;DHT22;64991;41.090;-8.118;2023-06-22T15:26:03;24.00;82.80
74368;DHT22;64991;41.090;-8.118;2023-06-22T15:31:08;24.00;82.90
74368;DHT22;64991;41.090;-8.118;2023-06-22T15:36:11;24.10;82.80
74368;DHT22;64991;41.090;-8.118;2023-06-22T15:41:15;24.10;82.90
74368;DHT22;64991;41.090;-8.118;2023-06-22T15:46:20;24.10;82.90
74368;DHT22;64991;41.090;-8.118;2023-06-22T15:51:24;24.00;82.90
74368;DHT22;64991;41.090;-8.118;2023-06-22T15:56:28;24.10;82.90
74368;DHT22;64991;41.090;-8.118;2023-06-22T16:01:33;24.10;83.10
74368;DHT22;64991;41.090;-8.118;2023-06-22T16:06:36;24.10;82.90
74368;DHT22;64991;41.090;-8.118;2023-06-22T16:11:40;24.10;83.10
74368;DHT22;64991;41.090;-8.118;2023-06-22T16:16:45;24.10;82.90
74368;DHT22;64991;41.090;-8.118;2023-06-22T16:21:48;24.10;83.00
74368;DHT22;64991;41.090;-8.118;2023-06-22T16:26:52;24.10;83.10
74368;DHT22;64991;41.090;-8.118;2023-06-22T16:31:58;24.10;83.10
74368;DHT22;64991;41.090;-8.118;2023-06-22T16:37:01;24.20;83.10
74368;DHT22;64991;41.090;-8.118;2023-06-22T16:42:05;24.10;83.10
74368;DHT22;64991;41.090;-8.118;2023-06-22T16:47:10;24.20;83.00
74368;DHT22;64991;41.090;-8.118;2023-06-22T16:52:14;24.20;83.00
74368;DHT22;64991;41.090;-8.118;2023-06-22T16:57:17;24.10;83.30
74368;DHT22;64991;41.090;-8.118;2023-06-22T17:02:23;24.20;83.30
74368;DHT22;64991;41.090;-8.118;2023-06-22T17:07:27;24.20;83.20
74368;DHT22;64991;41.090;-8.118;2023-06-22T17:12:32;24.10;83.30
74368;DHT22;64991;41.090;-8.118;2023-06-22T17:17:37;24.20;83.10
74368;DHT22;64991;41.090;-8.118;2023-06-22T17:22:43;24.20;83.40
74368;DHT22;64991;41.090;-8.118;2023-06-22T17:27:47;24.20;83.30
74368;DHT22;64991;41.090;-8.118;2023-06-22T17:32:52;24.20;83.30
74368;DHT22;64991;41.090;-8.118;2023-06-22T17:37:56;24.20;83.20
74368;DHT22;64991;41.090;-8.118;2023-06-22T17:43:02;24.20;83.20
74368;DHT22;64991;41.090;-8.118;2023-06-22T17:48:08;24.20;83.50
74368;DHT22;64991;41.090;-8.118;2023-06-22T17:53:12;24.20;83.60
74368;DHT22;64991;41.090;-8.118;2023-06-22T17:58:16;24.20;83.40
74368;DHT22;64991;41.090;-8.118;2023-06-22T18:03:24;24.30;83.60
74368;DHT22;64991;41.090;-8.118;2023-06-22T18:08:28;24.30;83.40
74368;DHT22;64991;41.090;-8.118;2023-06-22T18:13:31;24.20;83.50
74368;DHT22;64991;41.090;-8.118;2023-06-22T18:18:37;24.20;83.60
74368;DHT22;64991;41.090;-8.118;2023-06-22T18:23:42;24.30;83.50
74368;DHT22;64991;41.090;-8.118;2023-06-22T18:28:50;24.20;83.70
74368;DHT22;64991;41.090;-8.118;2023-06-22T18:33:55;24.30;83.60
74368;DHT22;64991;41.090;-8.118;2023-06-22T18:39:00;24.20;83.60
74368;DHT22;64991;41.090;-8.118;2023-06-22T18:44:10;24.30;83.40
74368;DHT22;64991;41.090;-8.118;2023-06-22T18:49:16;24.20;83.50
74368;DHT22;64991;41.090;-8.118;2023-06-22T18:54:21;24.30;83.60
74368;DHT22;64991;41.090;-8.118;2023-06-22T19:04:46;24.30;83.50
74368;DHT22;64991;41.090;-8.118;2023-06-22T19:10:20;24.30;83.70
74368;DHT22;64991;41.090;-8.118;2023-06-22T19:15:31;24.20;83.50
74368;DHT22;64991;41.090;-8.118;2023-06-22T19:20:37;24.30;83.60
74368;DHT22;64991;41.090;-8.118;2023-06-22T19:25:41;24.30;83.70
74368;DHT22;64991;41.090;-8.118;2023-06-22T19:30:48;24.30;83.50
74368;DHT22;64991;41.090;-8.118;2023-06-22T19:35:54;24.30;83.70
74368;DHT22;64991;41.090;-8.118;2023-06-22T19:40:58;24.30;83.60
74368;DHT22;64991;41.090;-8.118;2023-06-22T19:46:02;24.30;83.40
74368;DHT22;64991;41.090;-8.118;2023-06-22T19:51:07;24.30;83.50
74368;DHT22;64991;41.090;-8.118;2023-06-22T19:56:11;24.30;83.50
74368;DHT22;64991;41.090;-8.118;2023-06-22T20:01:15;24.30;83.50
74368;DHT22;64991;41.090;-8.118;2023-06-22T20:06:20;24.30;83.40
74368;DHT22;64991;41.090;-8.118;2023-06-22T20:11:24;24.30;83.70
74368;DHT22;64991;41.090;-8.118;2023-06-22T20:16:31;24.30;83.60
74368;DHT22;64991;41.090;-8.118;2023-06-22T20:21:40;24.30;83.80
74368;DHT22;64991;41.090;-8.118;2023-06-22T20:26:44;24.30;83.60
74368;DHT22;64991;41.090;-8.118;2023-06-22T20:31:49;24.30;83.50
74368;DHT22;64991;41.090;-8.118;2023-06-22T20:36:55;24.30;83.40
74368;DHT22;64991;41.090;-8.118;2023-06-22T20:41:58;24.40;83.90
74368;DHT22;64991;41.090;-8.118;2023-06-22T20:47:02;24.30;83.50
74368;DHT22;64991;41.090;-8.118;2023-06-22T20:52:08;24.40;83.60
74368;DHT22;64991;41.090;-8.118;2023-06-22T20:57:12;24.30;83.80
74368;DHT22;64991;41.090;-8.118;2023-06-22T21:02:15;24.40;83.50
74368;DHT22;64991;41.090;-8.118;2023-06-22T21:07:20;24.40;83.70
74368;DHT22;64991;41.090;-8.118;2023-06-22T21:12:24;24.30;83.70
74368;DHT22;64991;41.090;-8.118;2023-06-22T21:17:28;24.30;83.60
74368;DHT22;64991;41.090;-8.118;2023-06-22T21:22:33;24.20;84.00
74368;DHT22;64991;41.090;-8.118;2023-06-22T21:27:37;24.30;83.90
74368;DHT22;64991;41.090;-8.118;2023-06-22T21:32:41;24.30;83.90
74368;DHT22;64991;41.090;-8.118;2023-06-22T21:37:46;24.30;83.80
74368;DHT22;64991;41.090;-8.118;2023-06-22T21:42:50;24.30;84.10
74368;DHT22;64991;41.090;-8.118;2023-06-22T21:47:53;24.40;83.80
74368;DHT22;64991;41.090;-8.118;2023-06-22T21:52:59;24.40;83.60
74368;DHT22;64991;41.090;-8.118;2023-06-22T21:58:03;24.30;83.60
74368;DHT22;64991;41.090;-8.118;2023-06-22T22:03:07;24.30;83.60
74368;DHT22;64991;41.090;-8.118;2023-06-22T22:08:12;24.30;83.70
74368;DHT22;64991;41.090;-8.118;2023-06-22T22:13:16;24.30;83.60
74368;DHT22;64991;41.090;-8.118;2023-06-22T22:18:20;24.30;84.00
74368;DHT22;64991;41.090;-8.118;2023-06-22T22:23:25;24.40;83.70
74368;DHT22;64991;41.090;-8.118;2023-06-22T22:28:30;24.30;84.00
74368;DHT22;64991;41.090;-8.118;2023-06-22T22:33:34;24.30;83.90
74368;DHT22;64991;41.090;-8.118;2023-06-22T22:38:39;24.30;83.80
74368;DHT22;64991;41.090;-8.118;2023-06-22T22:43:44;24.30;84.10
74368;DHT22;64991;41.090;-8.118;2023-06-22T22:48:48;24.30;83.80
74368;DHT22;64991;41.090;-8.118;2023-06-22T22:53:53;24.30;83.80
74368;DHT22;64991;41.090;-8.118;2023-06-22T22:58:57;24.20;83.80
74368;DHT22;64991;41.090;-8.118;2023-06-22T23:04:00;24.30;83.90
74368;DHT22;64991;41.090;-8.118;2023-06-22T23:09:06;24.20;83.60
74368;DHT22;64991;41.090;-8.118;2023-06-22T23:14:09;24.30;83.80
74368;DHT22;64991;41.090;-8.118;2023-06-22T23:19:13;24.30;83.80
74368;DHT22;64991;41.090;-8.118;2023-06-22T23:24:18;24.30;83.60
74368;DHT22;64991;41.090;-8.118;2023-06-22T23:29:22;24.30;83.90
74368;DHT22;64991;41.090;-8.118;2023-06-22T23:34:25;24.20;83.60
74368;DHT22;64991;41.090;-8.118;2023-06-22T23:39:32;24.30;83.70
74368;DHT22;64991;41.090;-8.118;2023-06-22T23:44:36;24.30;83.70
74368;DHT22;64991;41.090;-8.118;2023-06-22T23:49:40;24.30;83.80
74368;DHT22;64991;41.090;-8.118;2023-06-22T23:54:46;24.30;83.60
74368;DHT22;64991;41.090;-8.118;2023-06-22T23:59:49;24.30;83.60
